createdAt,value
2023-03-03T00:01:07.227Z,10.04
2023-03-03T00:03:34.489Z,9.82
2023-03-03T00:06:04.726Z,9.95
2023-03-03T00:08:32.578Z,9.81
2023-03-03T00:11:00.852Z,9.94
2023-03-03T00:13:28.879Z,9.82
2023-03-03T00:16:28.657Z,9.70
2023-03-03T00:18:56.016Z,9.63
2023-03-03T00:21:42.975Z,9.89
2023-03-03T00:24:27.673Z,9.86
2023-03-03T00:26:57.146Z,9.74
2023-03-03T00:29:39.155Z,9.56
2023-03-03T00:32:15.305Z,9.78
2023-03-03T00:34:43.747Z,9.58
2023-03-03T00:37:27.645Z,9.55
2023-03-03T00:40:25.883Z,9.51
2023-03-03T00:42:58.807Z,9.42
2023-03-03T00:45:39.181Z,9.76
2023-03-03T00:48:28.651Z,9.80
2023-03-03T00:51:01.261Z,9.71
2023-03-03T00:53:31.507Z,9.73
2023-03-03T00:55:58.870Z,9.58
2023-03-03T00:58:27.386Z,9.60
2023-03-03T01:00:56.641Z,9.60
2023-03-03T01:03:29.082Z,9.51
2023-03-03T01:05:56.016Z,9.46
2023-03-03T01:08:23.319Z,9.62
2023-03-03T01:10:53.979Z,9.45
2023-03-03T01:13:28.957Z,9.70
2023-03-03T01:15:56.274Z,9.38
2023-03-03T01:18:23.611Z,9.43
2023-03-03T01:20:52.045Z,9.53
2023-03-03T01:23:19.424Z,9.55
2023-03-03T01:25:46.684Z,9.45
2023-03-03T01:28:13.820Z,9.44
2023-03-03T01:30:41.153Z,9.42
2023-03-03T01:33:08.070Z,9.31
2023-03-03T01:35:36.552Z,9.39
2023-03-03T01:38:04.261Z,9.45
2023-03-03T01:40:32.068Z,9.45
2023-03-03T01:43:02.424Z,9.38
2023-03-03T01:45:32.609Z,9.46
2023-03-03T01:48:05.272Z,9.38
2023-03-03T01:50:56.875Z,9.38
2023-03-03T01:53:39.967Z,9.45
2023-03-03T01:56:09.086Z,9.23
2023-03-03T01:58:44.617Z,9.38
2023-03-03T02:01:20.579Z,9.31
2023-03-03T02:03:48.096Z,9.17
2023-03-03T02:06:20.565Z,9.18
2023-03-03T02:08:56.505Z,9.18
2023-03-03T02:11:24.041Z,9.09
2023-03-03T02:13:50.959Z,8.89
2023-03-03T02:16:18.281Z,8.84
2023-03-03T02:18:45.494Z,8.87
2023-03-03T02:21:23.104Z,9.22
2023-03-03T02:24:10.680Z,9.02
2023-03-03T02:26:41.702Z,8.87
2023-03-03T02:29:10.833Z,8.84
2023-03-03T02:31:39.709Z,8.66
2023-03-03T02:34:07.382Z,8.80
2023-03-03T02:36:38.072Z,8.60
2023-03-03T02:39:08.093Z,8.63
2023-03-03T02:42:18.514Z,9.02
2023-03-03T02:44:50.359Z,9.24
2023-03-03T02:47:17.531Z,8.69
2023-03-03T02:49:45.168Z,9.55
2023-03-03T02:52:14.698Z,9.20
2023-03-03T02:54:45.512Z,9.36
2023-03-03T02:57:12.963Z,9.30
2023-03-03T02:59:39.868Z,9.18
2023-03-03T03:02:16.395Z,9.24
2023-03-03T03:04:43.804Z,8.74
2023-03-03T03:07:16.219Z,8.90
2023-03-03T03:09:43.413Z,8.98
2023-03-03T03:12:11.391Z,8.99
2023-03-03T03:14:39.074Z,8.93
2023-03-03T03:17:07.620Z,8.94
2023-03-03T03:19:34.916Z,8.83
2023-03-03T03:22:03.340Z,8.89
2023-03-03T03:24:33.025Z,8.77
2023-03-03T03:27:04.559Z,8.90
2023-03-03T03:29:33.066Z,8.83
2023-03-03T03:32:01.004Z,8.85
2023-03-03T03:34:28.433Z,8.88
2023-03-03T03:36:56.345Z,9.07
2023-03-03T03:39:25.455Z,9.27
2023-03-03T03:41:53.716Z,8.86
2023-03-03T03:44:22.014Z,8.83
2023-03-03T03:46:49.331Z,8.81
2023-03-03T03:49:16.248Z,8.76
2023-03-03T03:51:43.207Z,8.76
2023-03-03T03:54:14.355Z,8.89
2023-03-03T03:56:42.284Z,8.63
2023-03-03T03:59:10.304Z,8.73
2023-03-03T04:01:38.475Z,8.69
2023-03-03T04:04:05.793Z,8.74
2023-03-03T04:06:33.005Z,8.82
2023-03-03T04:09:01.473Z,8.92
2023-03-03T04:11:30.144Z,8.79
2023-03-03T04:13:57.686Z,8.63
2023-03-03T04:16:25.820Z,8.80
2023-03-03T04:18:52.740Z,8.89
2023-03-03T04:21:21.412Z,8.72
2023-03-03T04:23:49.210Z,8.81
2023-03-03T04:26:17.366Z,8.69
2023-03-03T04:28:45.753Z,8.69
2023-03-03T04:31:12.749Z,8.57
2023-03-03T04:33:40.267Z,8.72
2023-03-03T04:36:08.511Z,8.52
2023-03-03T04:38:35.948Z,8.52
2023-03-03T04:41:03.364Z,8.31
2023-03-03T04:43:34.728Z,8.14
2023-03-03T04:46:02.757Z,8.32
2023-03-03T04:48:30.129Z,8.58
2023-03-03T04:50:57.672Z,8.87
2023-03-03T04:53:25.078Z,8.98
2023-03-03T04:55:53.171Z,9.00
2023-03-03T04:58:21.513Z,8.84
2023-03-03T05:00:55.481Z,8.93
2023-03-03T05:03:23.375Z,8.83
2023-03-03T05:05:50.711Z,8.81
2023-03-03T05:08:18.046Z,8.83
2023-03-03T05:10:45.171Z,8.55
2023-03-03T05:13:15.259Z,8.76
2023-03-03T05:15:43.261Z,8.75
2023-03-03T05:18:13.344Z,8.69
2023-03-03T05:20:41.996Z,8.44
2023-03-03T05:23:08.913Z,8.21
2023-03-03T05:25:36.253Z,8.56
2023-03-03T05:28:04.804Z,8.54
2023-03-03T05:30:32.120Z,8.44
2023-03-03T05:32:59.504Z,8.66
2023-03-03T05:35:27.065Z,8.70
2023-03-03T05:37:54.942Z,8.69
2023-03-03T05:40:25.941Z,8.79
2023-03-03T05:42:53.665Z,8.63
2023-03-03T05:45:21.886Z,8.31
2023-03-03T05:47:49.380Z,8.34
2023-03-03T05:50:16.918Z,8.61
2023-03-03T05:52:44.242Z,8.58
2023-03-03T05:55:11.620Z,8.80
2023-03-03T05:57:38.985Z,8.90
2023-03-03T06:00:08.361Z,8.84
2023-03-03T06:02:42.124Z,8.54
2023-03-03T06:05:09.888Z,8.56
2023-03-03T06:07:36.879Z,8.50
2023-03-03T06:10:05.048Z,8.49
2023-03-03T06:12:34.868Z,8.41
2023-03-03T06:15:02.138Z,8.44
2023-03-03T06:17:29.480Z,8.37
2023-03-03T06:19:56.794Z,8.25
2023-03-03T06:22:23.674Z,8.20
2023-03-03T06:24:52.716Z,8.58
2023-03-03T06:27:20.242Z,8.60
2023-03-03T06:29:47.500Z,8.52
2023-03-03T06:32:14.910Z,8.72
2023-03-03T06:34:42.251Z,8.54
2023-03-03T06:37:09.553Z,8.80
2023-03-03T06:39:36.559Z,8.75
2023-03-03T06:42:03.826Z,8.69
2023-03-03T06:44:31.190Z,8.72
2023-03-03T06:46:58.866Z,8.70
2023-03-03T06:49:26.302Z,8.65
2023-03-03T06:51:53.211Z,8.73
2023-03-03T06:54:30.700Z,8.78
2023-03-03T06:57:01.440Z,8.51
2023-03-03T06:59:29.092Z,8.52
2023-03-03T07:01:56.786Z,8.85
2023-03-03T07:04:33.920Z,8.88
2023-03-03T07:07:21.575Z,9.08
2023-03-03T07:09:55.442Z,8.84
2023-03-03T07:12:30.897Z,8.92
2023-03-03T07:15:20.498Z,9.03
2023-03-03T07:17:51.296Z,8.87
2023-03-03T07:20:41.046Z,8.76
2023-03-03T07:23:44.930Z,8.80
2023-03-03T07:26:23.093Z,8.89
2023-03-03T07:28:58.578Z,8.85
2023-03-03T07:31:36.644Z,8.78
2023-03-03T07:34:21.626Z,8.91
2023-03-03T07:37:04.638Z,8.71
2023-03-03T07:39:39.048Z,8.92
2023-03-03T07:42:28.370Z,9.06
2023-03-03T07:45:30.682Z,8.75
2023-03-03T07:48:22.496Z,8.70
2023-03-03T07:50:49.932Z,8.73
2023-03-03T07:53:36.371Z,8.54
2023-03-03T07:56:16.480Z,8.23
2023-03-03T07:58:44.324Z,8.82
2023-03-03T08:01:40.930Z,9.00
2023-03-03T08:04:36.683Z,8.90
2023-03-03T08:07:16.974Z,9.17
2023-03-03T08:10:00.614Z,9.35
2023-03-03T08:12:42.125Z,9.02
2023-03-03T08:15:24.605Z,9.01
2023-03-03T08:17:56.024Z,8.26
2023-03-03T08:20:34.725Z,8.73
2023-03-03T08:23:02.029Z,8.56
2023-03-03T08:25:29.340Z,8.44
2023-03-03T08:27:56.604Z,8.87
2023-03-03T08:30:23.877Z,8.75
2023-03-03T08:32:51.201Z,8.74
2023-03-03T08:35:18.493Z,8.99
2023-03-03T08:37:45.850Z,8.71
2023-03-03T08:40:13.221Z,8.35
2023-03-03T08:42:40.079Z,8.44
2023-03-03T08:45:07.461Z,8.86
2023-03-03T08:47:34.865Z,9.12
2023-03-03T08:50:02.180Z,9.24
2023-03-03T08:52:29.453Z,9.04
2023-03-03T08:54:56.707Z,9.34
2023-03-03T08:57:23.832Z,9.29
2023-03-03T08:59:51.114Z,9.36
2023-03-03T09:02:18.074Z,8.98
2023-03-03T09:04:45.574Z,9.53
2023-03-03T09:07:12.864Z,9.59
2023-03-03T09:09:40.511Z,9.53
2023-03-03T09:12:18.289Z,9.85
2023-03-03T09:14:45.693Z,8.00
2023-03-03T09:17:39.055Z,9.42
2023-03-03T09:20:39.989Z,9.39
2023-03-03T09:23:36.283Z,9.86
2023-03-03T09:26:47.737Z,9.87
2023-03-03T09:29:14.458Z,10.01
2023-03-03T09:31:57.400Z,10.41
2023-03-03T09:34:29.365Z,9.09
2023-03-03T09:36:56.496Z,10.09
2023-03-03T09:39:26.782Z,9.87
2023-03-03T09:42:30.120Z,10.44
2023-03-03T09:45:24.537Z,10.58
2023-03-03T09:48:13.722Z,10.85
2023-03-03T09:50:46.799Z,11.00
2023-03-03T09:53:46.206Z,9.97
2023-03-03T09:56:24.500Z,10.75
2023-03-03T09:58:51.682Z,10.47
2023-03-03T10:01:45.398Z,10.32
2023-03-03T10:04:49.066Z,10.78
2023-03-03T10:07:32.439Z,10.27
2023-03-03T10:10:08.080Z,9.98
2023-03-03T10:13:05.427Z,8.82
2023-03-03T10:15:54.076Z,10.33
2023-03-03T10:18:33.432Z,10.66
2023-03-03T10:21:37.338Z,10.46
2023-03-03T10:24:41.636Z,11.23
2023-03-03T10:27:42.123Z,11.12
2023-03-03T10:30:38.241Z,10.97
2023-03-03T10:33:33.364Z,10.58
2023-03-03T10:36:18.279Z,10.68
2023-03-03T10:39:23.385Z,10.46
2023-03-03T10:42:30.092Z,11.61
2023-03-03T10:45:30.024Z,10.70
2023-03-03T10:48:48.079Z,10.87
2023-03-03T10:51:43.250Z,11.37
2023-03-03T10:54:47.911Z,11.87
2023-03-03T10:58:14.669Z,11.61
2023-03-03T11:00:45.612Z,10.90
2023-03-03T11:03:56.224Z,11.29
2023-03-03T11:06:40.575Z,11.42
2023-03-03T11:09:32.603Z,11.00
2023-03-03T11:12:07.009Z,11.10
2023-03-03T11:14:56.152Z,10.77
2023-03-03T11:17:54.927Z,10.94
2023-03-03T11:20:52.673Z,11.12
2023-03-03T11:23:53.605Z,10.80
2023-03-03T11:26:45.855Z,10.39
2023-03-03T11:29:52.820Z,10.98
2023-03-03T11:32:48.946Z,11.42
2023-03-03T11:35:51.687Z,11.49
2023-03-03T11:38:39.496Z,11.55
2023-03-03T11:41:46.964Z,11.67
2023-03-03T11:44:27.577Z,11.64
2023-03-03T11:47:22.045Z,12.25
2023-03-03T11:50:26.439Z,11.87
2023-03-03T11:53:27.133Z,12.48
2023-03-03T11:56:18.036Z,11.99
2023-03-03T11:59:34.978Z,11.93
2023-03-03T12:03:01.614Z,11.95
2023-03-03T12:05:56.192Z,12.12
2023-03-03T12:08:44.761Z,12.49
2023-03-03T12:11:36.639Z,12.49
2023-03-03T12:14:35.521Z,12.38
2023-03-03T12:17:49.467Z,13.66
2023-03-03T12:20:44.941Z,13.45
2023-03-03T12:24:04.962Z,14.99
2023-03-03T12:27:12.780Z,15.87
2023-03-03T12:30:18.424Z,18.83
2023-03-03T12:33:15.053Z,16.14
2023-03-03T12:36:14.373Z,21.95
2023-03-03T12:39:00.489Z,18.06
2023-03-03T12:42:05.349Z,19.64
2023-03-03T12:45:04.910Z,23.31
2023-03-03T12:48:10.173Z,21.95
2023-03-03T12:51:18.600Z,22.02
2023-03-03T12:54:04.854Z,23.93
2023-03-03T12:56:46.269Z,23.11
2023-03-03T12:59:28.438Z,23.03
2023-03-03T13:02:25.667Z,23.13
2023-03-03T13:05:14.750Z,18.92
2023-03-03T13:07:51.489Z,23.40
2023-03-03T13:10:58.544Z,20.73
2023-03-03T13:13:43.726Z,21.79
2023-03-03T13:16:26.442Z,25.44
2023-03-03T13:19:18.053Z,28.08
2023-03-03T13:22:15.162Z,25.44
2023-03-03T13:25:04.253Z,26.70
2023-03-03T13:27:40.908Z,22.90
2023-03-03T13:30:16.929Z,24.95
2023-03-03T13:33:17.596Z,27.03
2023-03-03T13:35:56.982Z,24.53
2023-03-03T13:38:42.903Z,21.48
2023-03-03T13:41:44.598Z,20.80
2023-03-03T13:44:35.498Z,22.46
2023-03-03T13:47:27.883Z,20.05
2023-03-03T13:50:16.189Z,23.70
2023-03-03T13:53:03.175Z,25.81
2023-03-03T13:56:04.134Z,28.02
2023-03-03T13:59:09.626Z,25.05
2023-03-03T14:02:21.017Z,23.35
2023-03-03T14:05:12.643Z,24.71
2023-03-03T14:07:54.770Z,26.25
2023-03-03T14:10:30.492Z,26.42
2023-03-03T14:13:26.800Z,24.58
2023-03-03T14:16:08.801Z,26.65
2023-03-03T14:18:39.560Z,25.11
2023-03-03T14:21:18.947Z,22.68
2023-03-03T14:24:13.958Z,25.82
2023-03-03T14:26:56.964Z,23.17
2023-03-03T14:29:26.996Z,21.15
2023-03-03T14:32:44.409Z,24.90
2023-03-03T14:35:20.542Z,20.39
2023-03-03T14:37:50.588Z,18.13
2023-03-03T14:40:22.958Z,17.16
2023-03-03T14:42:52.859Z,17.74
2023-03-03T14:45:36.212Z,17.79
2023-03-03T14:48:13.634Z,16.17
2023-03-03T14:50:43.054Z,15.85
2023-03-03T14:53:19.456Z,15.20
2023-03-03T14:55:50.582Z,15.50
2023-03-03T14:58:40.372Z,16.39
2023-03-03T15:01:23.751Z,15.13
2023-03-03T15:04:00.156Z,16.29
2023-03-03T15:06:44.730Z,17.42
2023-03-03T15:09:43.279Z,15.51
2023-03-03T15:12:48.044Z,15.47
2023-03-03T15:15:21.014Z,15.46
2023-03-03T15:17:51.024Z,15.15
2023-03-03T15:20:42.843Z,15.05
2023-03-03T15:23:51.600Z,16.86
2023-03-03T15:26:44.087Z,16.69
2023-03-03T15:29:14.391Z,16.30
2023-03-03T15:31:57.416Z,14.83
2023-03-03T15:35:02.234Z,15.04
2023-03-03T15:38:00.010Z,16.23
2023-03-03T15:40:29.422Z,16.87
2023-03-03T15:43:19.678Z,15.86
2023-03-03T15:46:06.925Z,16.25
2023-03-03T15:48:43.409Z,14.08
2023-03-03T15:51:34.706Z,16.12
2023-03-03T15:54:25.677Z,15.48
2023-03-03T15:57:57.287Z,15.67
2023-03-03T16:01:11.027Z,15.29
2023-03-03T16:03:56.101Z,15.37
2023-03-03T16:07:05.823Z,15.15
2023-03-03T16:09:47.429Z,14.24
2023-03-03T16:12:44.401Z,14.59
2023-03-03T16:15:46.308Z,15.38
2023-03-03T16:18:44.249Z,14.79
2023-03-03T16:21:54.264Z,15.00
2023-03-03T16:25:01.604Z,15.07
2023-03-03T16:27:44.081Z,16.31
2023-03-03T16:31:04.772Z,15.83
2023-03-03T16:33:48.596Z,15.99
2023-03-03T16:36:18.482Z,15.91
2023-03-03T16:39:20.974Z,16.28
2023-03-03T16:42:02.724Z,16.29
2023-03-03T16:44:54.348Z,15.36
2023-03-03T16:47:37.161Z,14.75
2023-03-03T16:50:26.286Z,13.90
2023-03-03T16:53:39.427Z,15.25
2023-03-03T16:56:32.225Z,15.42
2023-03-03T16:59:45.509Z,15.18
2023-03-03T17:02:56.625Z,15.05
2023-03-03T17:05:35.496Z,14.94
2023-03-03T17:08:50.459Z,14.74
2023-03-03T17:11:39.936Z,13.13
2023-03-03T17:14:38.497Z,13.36
2023-03-03T17:17:52.665Z,14.25
2023-03-03T17:20:31.028Z,14.13
2023-03-03T17:23:19.662Z,13.99
2023-03-03T17:26:16.496Z,14.54
2023-03-03T17:29:33.913Z,14.64
2023-03-03T17:32:05.132Z,14.37
2023-03-03T17:35:02.880Z,14.03
2023-03-03T17:38:14.154Z,14.25
2023-03-03T17:40:53.287Z,14.36
2023-03-03T17:43:31.825Z,13.95
2023-03-03T17:46:03.259Z,14.03
2023-03-03T17:49:02.710Z,13.78
2023-03-03T17:52:09.651Z,13.25
2023-03-03T17:54:44.333Z,13.07
2023-03-03T17:57:57.939Z,13.14
2023-03-03T18:00:52.686Z,13.30
2023-03-03T18:03:43.589Z,13.33
2023-03-03T18:07:12.257Z,13.33
2023-03-03T18:10:20.704Z,13.33
2023-03-03T18:13:14.249Z,13.22
2023-03-03T18:16:38.519Z,12.59
2023-03-03T18:19:50.698Z,13.34
2023-03-03T18:22:33.168Z,13.01
2023-03-03T18:25:40.387Z,13.07
2023-03-03T18:28:07.144Z,12.57
2023-03-03T18:31:04.652Z,11.64
2023-03-03T18:34:20.307Z,12.79
2023-03-03T18:37:09.381Z,12.61
2023-03-03T18:39:50.866Z,12.63
2023-03-03T18:42:25.991Z,12.59
2023-03-03T18:44:53.293Z,12.54
2023-03-03T18:47:58.872Z,12.54
2023-03-03T18:50:34.932Z,12.53
2023-03-03T18:53:10.932Z,12.38
2023-03-03T18:55:46.146Z,12.53
2023-03-03T18:58:15.969Z,12.52
2023-03-03T19:00:49.950Z,12.35
2023-03-03T19:03:34.223Z,12.27
2023-03-03T19:06:02.967Z,12.14
2023-03-03T19:08:53.832Z,12.26
2023-03-03T19:11:49.321Z,12.28
2023-03-03T19:14:34.522Z,12.18
2023-03-03T19:17:22.195Z,12.26
2023-03-03T19:20:12.813Z,12.16
2023-03-03T19:22:52.639Z,12.17
2023-03-03T19:25:25.755Z,11.80
2023-03-03T19:28:36.746Z,11.89
2023-03-03T19:31:21.791Z,11.92
2023-03-03T19:33:59.413Z,11.86
2023-03-03T19:37:27.135Z,12.12
2023-03-03T19:40:10.396Z,11.76
2023-03-03T19:43:00.482Z,11.24
2023-03-03T19:46:19.959Z,11.66
2023-03-03T19:49:12.493Z,11.65
2023-03-03T19:52:19.263Z,11.49
2023-03-03T19:55:26.101Z,11.84
2023-03-03T19:58:25.218Z,11.62
2023-03-03T20:01:30.060Z,12.08
2023-03-03T20:04:53.920Z,12.17
2023-03-03T20:07:33.174Z,11.93
2023-03-03T20:10:26.986Z,11.15
2023-03-03T20:13:28.521Z,11.71
2023-03-03T20:16:10.593Z,11.56
2023-03-03T20:19:20.547Z,11.56
2023-03-03T20:22:34.604Z,11.71
2023-03-03T20:25:35.110Z,11.61
2023-03-03T20:29:07.439Z,11.21
2023-03-03T20:31:40.903Z,11.30
2023-03-03T20:34:55.073Z,11.45
2023-03-03T20:37:58.953Z,11.41
2023-03-03T20:41:13.054Z,11.44
2023-03-03T20:43:58.583Z,11.27
2023-03-03T20:47:04.995Z,11.27
2023-03-03T20:49:44.837Z,10.41
2023-03-03T20:52:29.968Z,11.34
2023-03-03T20:55:19.850Z,11.17
2023-03-03T20:58:11.494Z,10.94
2023-03-03T21:01:06.170Z,10.07
2023-03-03T21:03:43.514Z,10.90
2023-03-03T21:06:17.780Z,11.01
2023-03-03T21:08:53.739Z,11.12
2023-03-03T21:11:32.891Z,11.13
2023-03-03T21:14:14.322Z,11.11
2023-03-03T21:16:42.411Z,11.09
2023-03-03T21:19:31.139Z,11.06
2023-03-03T21:22:02.166Z,10.92
2023-03-03T21:25:00.862Z,10.93
2023-03-03T21:27:38.518Z,10.91
2023-03-03T21:30:14.216Z,10.88
2023-03-03T21:32:46.813Z,10.78
2023-03-03T21:35:22.984Z,10.47
2023-03-03T21:37:53.510Z,10.94
2023-03-03T21:40:29.519Z,11.10
2023-03-03T21:43:00.249Z,11.08
2023-03-03T21:45:27.721Z,10.92
2023-03-03T21:47:56.602Z,10.52
2023-03-03T21:50:31.071Z,10.72
2023-03-03T21:52:58.071Z,10.47
2023-03-03T21:55:26.680Z,10.35
2023-03-03T21:57:53.764Z,10.40
2023-03-03T22:00:21.014Z,10.51
2023-03-03T22:02:47.932Z,10.48
2023-03-03T22:05:14.879Z,10.55
2023-03-03T22:07:41.764Z,10.33
2023-03-03T22:10:09.868Z,10.53
2023-03-03T22:12:36.824Z,10.35
2023-03-03T22:15:04.527Z,10.40
2023-03-03T22:17:31.813Z,10.36
2023-03-03T22:19:59.202Z,10.01
2023-03-03T22:22:26.062Z,10.28
2023-03-03T22:24:53.793Z,10.54
2023-03-03T22:27:21.065Z,10.26
2023-03-03T22:29:47.972Z,10.30
2023-03-03T22:32:15.279Z,10.34
2023-03-03T22:34:42.334Z,9.34
2023-03-03T22:37:09.635Z,9.36
2023-03-03T22:39:36.596Z,9.29
2023-03-03T22:42:03.892Z,10.17
2023-03-03T22:44:31.231Z,10.40
2023-03-03T22:46:58.092Z,10.36
2023-03-03T22:49:25.418Z,10.32
2023-03-03T22:51:53.082Z,10.24
2023-03-03T22:54:20.373Z,10.22
2023-03-03T22:56:47.688Z,10.34
2023-03-03T22:59:14.934Z,10.21
2023-03-03T23:01:42.185Z,10.01
2023-03-03T23:04:09.524Z,9.95
2023-03-03T23:06:36.872Z,9.94
2023-03-03T23:09:03.776Z,9.85
2023-03-03T23:11:30.647Z,9.85
2023-03-03T23:13:57.959Z,9.99
2023-03-03T23:16:24.895Z,9.91
2023-03-03T23:18:51.815Z,9.82
2023-03-03T23:21:19.181Z,9.76
2023-03-03T23:23:46.079Z,9.67
2023-03-03T23:26:12.975Z,9.75
2023-03-03T23:28:39.847Z,9.76
2023-03-03T23:31:07.761Z,9.83
2023-03-03T23:33:35.357Z,9.64
2023-03-03T23:36:02.258Z,9.67
2023-03-03T23:38:29.244Z,9.57
2023-03-03T23:40:56.112Z,9.50
2023-03-03T23:43:23.401Z,9.74
2023-03-03T23:45:50.689Z,9.71
2023-03-03T23:48:17.814Z,9.55
2023-03-03T23:50:45.102Z,9.59
2023-03-03T23:53:12.344Z,9.55
2023-03-03T23:55:39.292Z,9.37
2023-03-03T23:58:06.623Z,9.36
